createdAt,value
2019-01-28T00:01:45.898Z,97721.70
2019-01-28T00:04:15.139Z,97724.70
2019-01-28T00:06:44.398Z,97733.18
2019-01-28T00:09:13.792Z,97730.99
2019-01-28T00:11:43.203Z,97734.91
2019-01-28T00:14:12.570Z,97735.95
2019-01-28T00:16:41.886Z,97735.04
2019-01-28T00:19:11.218Z,97733.77
2019-01-28T00:21:40.603Z,97726.39
2019-01-28T00:24:09.939Z,97728.77
2019-01-28T00:26:39.192Z,97727.13
2019-01-28T00:29:08.545Z,97727.10
2019-01-28T00:31:37.728Z,97729.87
2019-01-28T00:34:06.876Z,97722.63
2019-01-28T00:36:36.000Z,97730.99
2019-01-28T00:39:07.880Z,97732.09
2019-01-28T00:41:37.010Z,97734.16
2019-01-28T00:44:08.804Z,97737.82
2019-01-28T00:46:37.946Z,97744.13
2019-01-28T00:49:07.076Z,97747.20
2019-01-28T00:51:36.221Z,97745.90
2019-01-28T00:54:05.500Z,97745.41
2019-01-28T00:56:34.673Z,97745.80
2019-01-28T00:59:03.755Z,97746.39
2019-01-28T01:01:33.765Z,97752.63
2019-01-28T01:04:03.398Z,97760.78
2019-01-28T01:06:32.519Z,97766.89
2019-01-28T01:09:01.663Z,97770.47
2019-01-28T01:11:30.885Z,97769.82
2019-01-28T01:14:00.009Z,97768.95
2019-01-28T01:16:29.130Z,97769.17
2019-01-28T01:18:58.252Z,97782.59
2019-01-28T01:21:27.375Z,97777.70
2019-01-28T01:23:56.509Z,97772.86
2019-01-28T01:26:25.654Z,97776.06
2019-01-28T01:28:54.762Z,97777.14
2019-01-28T01:31:23.895Z,97776.48
2019-01-28T01:33:53.030Z,97772.80
2019-01-28T01:36:22.128Z,97777.27
2019-01-28T01:38:52.915Z,97771.91
2019-01-28T01:41:22.101Z,97768.55
2019-01-28T01:43:53.000Z,97768.87
2019-01-28T01:46:22.133Z,97766.50
2019-01-28T01:48:51.396Z,97759.97
2019-01-28T01:51:20.512Z,97766.73
2019-01-28T01:53:49.659Z,97769.76
2019-01-28T01:56:18.848Z,97766.09
2019-01-28T01:58:47.975Z,97763.46
2019-01-28T02:01:17.093Z,97766.98
2019-01-28T02:03:46.281Z,97764.38
2019-01-28T02:06:15.400Z,97759.81
2019-01-28T02:08:44.597Z,97766.34
2019-01-28T02:11:13.713Z,97765.84
2019-01-28T02:13:42.846Z,97768.06
2019-01-28T02:16:11.971Z,97765.56
2019-01-28T02:18:41.105Z,97765.78
2019-01-28T02:21:10.306Z,97774.28
2019-01-28T02:23:39.452Z,97755.22
2019-01-28T02:26:08.581Z,97753.33
2019-01-28T02:28:37.709Z,97748.20
2019-01-28T02:31:06.836Z,97749.19
2019-01-28T02:33:35.948Z,97745.07
2019-01-28T02:36:05.078Z,97746.70
2019-01-28T02:38:34.199Z,97736.95
2019-01-28T02:41:03.337Z,97736.04
2019-01-28T02:43:32.561Z,97729.41
2019-01-28T02:46:01.702Z,97736.89
2019-01-28T02:48:30.819Z,97737.11
2019-01-28T02:51:00.033Z,97740.64
2019-01-28T02:53:29.151Z,97739.66
2019-01-28T02:55:58.294Z,97751.15
2019-01-28T02:58:27.474Z,97737.06
2019-01-28T03:00:56.621Z,97738.20
2019-01-28T03:03:25.724Z,97732.48
2019-01-28T03:05:54.865Z,97741.86
2019-01-28T03:08:23.979Z,97723.85
2019-01-28T03:10:54.749Z,97730.31
2019-01-28T03:13:23.928Z,97726.66
2019-01-28T03:15:53.060Z,97726.99
2019-01-28T03:18:24.285Z,97724.71
2019-01-28T03:20:54.086Z,97719.82
2019-01-28T03:23:24.976Z,97719.95
2019-01-28T03:25:54.117Z,97718.02
2019-01-28T03:28:23.316Z,97717.44
2019-01-28T03:30:52.459Z,97709.22
2019-01-28T03:33:21.605Z,97714.17
2019-01-28T03:35:50.735Z,97714.30
2019-01-28T03:38:21.533Z,97713.42
2019-01-28T03:40:50.639Z,97709.38
2019-01-28T03:43:19.774Z,97705.73
2019-01-28T03:45:48.921Z,97705.69
2019-01-28T03:48:18.072Z,97708.69
2019-01-28T03:50:47.185Z,97703.24
2019-01-28T03:53:16.393Z,97705.69
2019-01-28T03:55:45.558Z,97708.41
2019-01-28T03:58:14.649Z,97704.66
2019-01-28T04:00:45.202Z,97711.83
2019-01-28T04:03:14.347Z,97712.26
2019-01-28T04:05:43.464Z,97706.33
2019-01-28T04:08:12.619Z,97704.44
2019-01-28T04:10:41.758Z,97708.19
2019-01-28T04:13:10.912Z,97707.92
2019-01-28T04:15:40.102Z,97703.12
2019-01-28T04:18:09.235Z,97703.88
2019-01-28T04:20:38.358Z,97701.40
2019-01-28T04:23:07.512Z,97699.94
2019-01-28T04:25:36.627Z,97701.34
2019-01-28T04:28:05.776Z,97699.22
2019-01-28T04:30:34.893Z,97696.05
2019-01-28T04:33:04.039Z,97698.17
2019-01-28T04:35:33.177Z,97709.50
2019-01-28T04:38:02.300Z,97708.23
2019-01-28T04:40:31.448Z,97696.22
2019-01-28T04:43:02.857Z,97693.88
2019-01-28T04:45:32.004Z,97694.92
2019-01-28T04:48:01.101Z,97688.08
2019-01-28T04:50:30.250Z,97691.92
2019-01-28T04:52:59.384Z,97691.98
2019-01-28T04:55:28.523Z,97691.34
2019-01-28T04:57:57.704Z,97692.64
2019-01-28T05:00:27.344Z,97683.84
2019-01-28T05:02:56.526Z,97679.37
2019-01-28T05:05:25.671Z,97680.38
2019-01-28T05:07:54.783Z,97686.88
2019-01-28T05:10:23.937Z,97680.12
2019-01-28T05:12:53.053Z,97681.52
2019-01-28T05:15:22.269Z,97676.47
2019-01-28T05:17:51.400Z,97676.70
2019-01-28T05:20:23.123Z,97676.86
2019-01-28T05:22:52.245Z,97680.88
2019-01-28T05:25:21.393Z,97677.36
2019-01-28T05:27:50.506Z,97670.52
2019-01-28T05:30:25.379Z,97677.46
2019-01-28T05:32:54.505Z,97665.92
2019-01-28T05:35:24.093Z,97664.46
2019-01-28T05:37:53.265Z,97660.81
2019-01-28T05:40:24.538Z,97666.64
2019-01-28T05:42:53.689Z,97671.20
2019-01-28T05:45:24.355Z,97654.45
2019-01-28T05:47:53.652Z,97656.54
2019-01-28T05:50:24.221Z,97653.64
2019-01-28T05:52:53.338Z,97657.06
2019-01-28T05:55:22.451Z,97654.52
2019-01-28T05:57:51.592Z,97656.52
2019-01-28T06:00:25.854Z,97652.59
2019-01-28T06:02:55.031Z,97651.30
2019-01-28T06:05:24.146Z,97651.75
2019-01-28T06:07:53.279Z,97656.58
2019-01-28T06:10:22.407Z,97658.21
2019-01-28T06:12:51.535Z,97662.22
2019-01-28T06:15:22.288Z,97654.77
2019-01-28T06:17:51.419Z,97643.48
2019-01-28T06:20:26.765Z,97653.69
2019-01-28T06:22:55.918Z,97657.34
2019-01-28T06:25:25.012Z,97661.67
2019-01-28T06:27:54.163Z,97665.62
2019-01-28T06:30:30.300Z,97654.34
2019-01-28T06:32:59.556Z,97664.39
2019-01-28T06:35:28.675Z,97655.20
2019-01-28T06:37:57.833Z,97655.91
2019-01-28T06:40:30.936Z,97645.80
2019-01-28T06:43:00.084Z,97652.66
2019-01-28T06:45:29.207Z,97657.12
2019-01-28T06:47:58.375Z,97663.63
2019-01-28T06:50:27.504Z,97655.75
2019-01-28T06:52:56.666Z,97654.19
2019-01-28T06:55:25.871Z,97659.23
2019-01-28T06:57:55.001Z,97660.14
2019-01-28T07:00:28.277Z,97655.09
2019-01-28T07:02:57.460Z,97658.42
2019-01-28T07:05:26.590Z,97658.78
2019-01-28T07:07:55.700Z,97660.31
2019-01-28T07:10:24.830Z,97658.02
2019-01-28T07:12:53.948Z,97662.23
2019-01-28T07:15:23.582Z,97653.23
2019-01-28T07:17:54.952Z,97662.23
2019-01-28T07:20:31.366Z,97662.55
2019-01-28T07:23:00.641Z,97668.72
2019-01-28T07:25:29.774Z,97664.28
2019-01-28T07:27:58.923Z,97671.84
2019-01-28T07:30:31.383Z,97665.59
2019-01-28T07:33:00.471Z,97669.73
2019-01-28T07:35:29.696Z,97671.33
2019-01-28T07:37:58.819Z,97660.96
2019-01-28T07:40:28.123Z,97661.36
2019-01-28T07:42:57.236Z,97662.53
2019-01-28T07:45:29.701Z,97666.70
2019-01-28T07:48:03.045Z,97676.48
2019-01-28T07:50:29.675Z,97671.53
2019-01-28T07:52:58.799Z,97679.42
2019-01-28T07:55:27.914Z,97664.78
2019-01-28T07:57:57.050Z,97653.14
2019-01-28T08:00:30.920Z,97668.84
2019-01-28T08:03:00.057Z,97676.02
2019-01-28T08:05:29.173Z,97670.74
2019-01-28T08:07:58.304Z,97671.06
2019-01-28T08:10:27.423Z,97671.23
2019-01-28T08:12:56.552Z,97673.02
2019-01-28T08:15:28.304Z,97676.67
2019-01-28T08:17:57.442Z,97671.30
2019-01-28T08:20:26.551Z,97678.86
2019-01-28T08:22:55.716Z,97665.49
2019-01-28T08:25:24.824Z,97667.05
2019-01-28T08:27:53.966Z,97676.58
2019-01-28T08:30:29.552Z,97675.75
2019-01-28T08:32:58.681Z,97672.02
2019-01-28T08:35:29.852Z,97668.95
2019-01-28T08:37:58.995Z,97675.53
2019-01-28T08:40:28.115Z,97670.97
2019-01-28T08:42:57.242Z,97674.16
2019-01-28T08:45:26.422Z,97686.52
2019-01-28T08:47:55.580Z,97662.91
2019-01-28T08:50:28.062Z,97666.50
2019-01-28T08:52:57.178Z,97666.95
2019-01-28T08:55:28.924Z,97667.61
2019-01-28T08:57:58.052Z,97666.41
2019-01-28T09:00:31.917Z,97670.05
2019-01-28T09:03:01.107Z,97668.20
2019-01-28T09:05:30.249Z,97664.65
2019-01-28T09:07:59.367Z,97670.16
2019-01-28T09:10:30.626Z,97672.02
2019-01-28T09:12:59.733Z,97673.31
2019-01-28T09:15:28.866Z,97672.92
2019-01-28T09:17:57.997Z,97670.86
2019-01-28T09:20:32.980Z,97670.21
2019-01-28T09:23:02.097Z,97668.94
2019-01-28T09:25:31.293Z,97676.57
2019-01-28T09:28:00.463Z,97673.25
2019-01-28T09:30:36.352Z,97674.33
2019-01-28T09:33:05.645Z,97672.37
2019-01-28T09:35:34.797Z,97672.20
2019-01-28T09:38:04.293Z,97680.06
2019-01-28T09:40:36.437Z,97672.78
2019-01-28T09:43:06.580Z,97673.59
2019-01-28T09:45:39.218Z,97675.00
2019-01-28T09:48:10.576Z,97688.27
2019-01-28T09:50:39.641Z,97691.79
2019-01-28T09:53:08.859Z,97687.32
2019-01-28T09:55:37.966Z,97690.87
2019-01-28T09:58:07.165Z,97699.41
2019-01-28T10:00:43.007Z,97703.14
2019-01-28T10:03:12.174Z,97713.15
2019-01-28T10:05:41.287Z,97713.86
2019-01-28T10:08:12.296Z,97704.41
2019-01-28T10:10:42.681Z,97695.64
2019-01-28T10:13:11.740Z,97714.16
2019-01-28T10:15:40.896Z,97712.33
2019-01-28T10:18:10.025Z,97696.23
2019-01-28T10:20:44.806Z,97710.97
2019-01-28T10:23:14.650Z,97705.78
2019-01-28T10:25:43.746Z,97706.17
2019-01-28T10:28:12.986Z,97705.85
2019-01-28T10:30:44.404Z,97710.52
2019-01-28T10:33:13.605Z,97711.59
2019-01-28T10:35:43.229Z,97716.58
2019-01-28T10:38:12.448Z,97721.14
2019-01-28T10:40:43.581Z,97723.91
2019-01-28T10:43:12.713Z,97725.61
2019-01-28T10:45:41.840Z,97716.13
2019-01-28T10:48:11.378Z,97718.14
2019-01-28T10:50:41.018Z,97714.63
2019-01-28T10:53:10.174Z,97725.31
2019-01-28T10:55:39.294Z,97715.05
2019-01-28T10:58:08.447Z,97726.06
2019-01-28T11:00:44.242Z,97726.98
2019-01-28T11:03:15.416Z,97725.77
2019-01-28T11:05:44.518Z,97724.07
2019-01-28T11:08:13.648Z,97724.46
2019-01-28T11:10:42.781Z,97728.70
2019-01-28T11:13:12.016Z,97732.25
2019-01-28T11:15:41.152Z,97731.47
2019-01-28T11:18:18.422Z,97729.81
2019-01-28T11:20:47.537Z,97734.05
2019-01-28T11:23:16.738Z,97741.90
2019-01-28T11:25:45.914Z,97738.44
2019-01-28T11:28:14.998Z,97740.89
2019-01-28T11:30:50.379Z,97731.31
2019-01-28T11:33:19.636Z,97738.12
2019-01-28T11:35:48.959Z,97736.00
2019-01-28T11:38:18.115Z,97743.16
2019-01-28T11:40:47.293Z,97740.98
